Lawrenceville, IL

9:24 AM CDT on August 29, 2015 (GMT -0500)
Nettleton Home | | Change Station
CLOSE
Current Station
Personal Weather Station
Location: Lawrenceville, IL
Elevation: 505 ft
Nearby Weather Stations

Elev 505 ft 38.82 °N, 87.61 °W | Updated 2 minutes ago

Partly Cloudy
Partly Cloudy
73.6 °F
Feels Like 73 °F
N
5.0
Wind Variable Wind from SSE
Gusts 10.0 mph

Today
High -- | Low -- °F
--% Chance of Precip.
Yesterday
High -- | Low -- °F
Precip. -- in
6:16 AM 7:25 PM
Full, 100% visible
Pressure 30.08 in
Visibility 10.0 miles
Clouds Clear
Heat Index 73 °F
Dew Point 69 °F
Humidity 86%
Rainfall 0.00 in
Snow Depth Not available.
UV 4 out of 12
Pollen 9.80 out of 12
Air Quality Not available.
Flu Activity Not available.
METAR KAJG 291415Z AUTO 20006KT 10SM CLR 23/19 A3008 RMK AO2 LTG DSNT SW
Pressure 30.08 in
Visibility 10.0 miles
Clouds Clear
Heat Index 73 °F
Dew Point 69 °F
Humidity 86%
Rainfall 0.00 in
Snow Depth Not available.
UV 4 out of 12
Pollen 9.80 out of 12
Air Quality Not available.
Flu Activity Not available.
METAR KAJG 291415Z AUTO 20006KT 10SM CLR 23/19 A3008 RMK AO2 LTG DSNT SW

10-Day Weather Forecast

×

Almanac

Astronomy

Aug. 29, 2015 Rise Set
Actual Time
Civil Twilight
Nautical Twilight
Astronomical Twilight
Moon
Length of Visible Light
Length of Day
Tomorrow will be .
, % of the Moon is Illuminated

Today's Extremes

State Highs State Lows

Community

WunderPhotos

Upload Photos

1,850,706 photos uploaded!

WunderBlogs® & News

Nearby

Air Quality

  Air Quality AQ Index Pollutant
Not available.

Snow Depth

Station Depth Elevation

Earthquake Activity

City Distance Mag. Time & Date
Minimum magnitude displayed is 2.5.

Coastal Water Temperatures

Place Temperature

Stations

Nearby Weather Stations

Station Location Temp. Windchill Dew Point Humidity Wind Precip. Elev Updated Type